sensor_id;sensor_type;location;lat;lon;timestamp;P1;durP1;ratioP1;P2;durP2;ratioP2
59014;SDS011;44799;53.382;14.666;2022-08-19T00:00:23;8.25;;;5.55;;
59014;SDS011;44799;53.382;14.666;2022-08-19T00:02:50;7.07;;;5.25;;
59014;SDS011;44799;53.382;14.666;2022-08-19T00:05:16;7.43;;;5.35;;
59014;SDS011;44799;53.382;14.666;2022-08-19T00:07:44;7.30;;;5.43;;
59014;SDS011;44799;53.382;14.666;2022-08-19T00:10:11;7.78;;;5.20;;
59014;SDS011;44799;53.382;14.666;2022-08-19T00:12:39;8.00;;;5.38;;
59014;SDS011;44799;53.382;14.666;2022-08-19T00:15:06;8.75;;;5.20;;
59014;SDS011;44799;53.382;14.666;2022-08-19T00:17:37;5.57;;;4.95;;
59014;SDS011;44799;53.382;14.666;2022-08-19T00:20:07;10.40;;;5.90;;
59014;SDS011;44799;53.382;14.666;2022-08-19T00:22:36;8.20;;;5.97;;
59014;SDS011;44799;53.382;14.666;2022-08-19T00:25:03;8.15;;;5.90;;
59014;SDS011;44799;53.382;14.666;2022-08-19T00:27:30;8.60;;;5.72;;
59014;SDS011;44799;53.382;14.666;2022-08-19T00:29:56;7.85;;;5.57;;
59014;SDS011;44799;53.382;14.666;2022-08-19T00:32:21;7.20;;;6.10;;
59014;SDS011;44799;53.382;14.666;2022-08-19T00:34:47;10.90;;;6.28;;
59014;SDS011;44799;53.382;14.666;2022-08-19T00:37:13;8.32;;;5.70;;
59014;SDS011;44799;53.382;14.666;2022-08-19T00:39:39;9.52;;;6.47;;
59014;SDS011;44799;53.382;14.666;2022-08-19T00:42:05;11.32;;;6.50;;
59014;SDS011;44799;53.382;14.666;2022-08-19T00:44:31;9.32;;;7.18;;
59014;SDS011;44799;53.382;14.666;2022-08-19T00:46:58;11.88;;;6.68;;
59014;SDS011;44799;53.382;14.666;2022-08-19T00:49:37;11.10;;;6.97;;
59014;SDS011;44799;53.382;14.666;2022-08-19T00:54:45;9.85;;;5.85;;
59014;SDS011;44799;53.382;14.666;2022-08-19T00:57:14;8.85;;;7.07;;
59014;SDS011;44799;53.382;14.666;2022-08-19T00:59:42;10.85;;;6.95;;
59014;SDS011;44799;53.382;14.666;2022-08-19T01:02:10;8.95;;;7.10;;
59014;SDS011;44799;53.382;14.666;2022-08-19T01:04:37;9.23;;;6.25;;
59014;SDS011;44799;53.382;14.666;2022-08-19T01:07:03;10.90;;;6.93;;
59014;SDS011;44799;53.382;14.666;2022-08-19T01:09:29;9.98;;;6.38;;
59014;SDS011;44799;53.382;14.666;2022-08-19T01:11:56;11.77;;;7.90;;
59014;SDS011;44799;53.382;14.666;2022-08-19T01:14:22;9.25;;;7.25;;
59014;SDS011;44799;53.382;14.666;2022-08-19T01:16:48;11.98;;;8.07;;
59014;SDS011;44799;53.382;14.666;2022-08-19T01:19:24;8.73;;;7.13;;
59014;SDS011;44799;53.382;14.666;2022-08-19T01:22:01;9.77;;;7.15;;
59014;SDS011;44799;53.382;14.666;2022-08-19T01:24:28;9.25;;;7.13;;
59014;SDS011;44799;53.382;14.666;2022-08-19T01:26:54;11.50;;;7.53;;
59014;SDS011;44799;53.382;14.666;2022-08-19T01:29:20;10.70;;;7.13;;
59014;SDS011;44799;53.382;14.666;2022-08-19T01:31:46;9.20;;;6.72;;
59014;SDS011;44799;53.382;14.666;2022-08-19T01:34:12;9.93;;;7.47;;
59014;SDS011;44799;53.382;14.666;2022-08-19T01:36:41;11.43;;;7.53;;
59014;SDS011;44799;53.382;14.666;2022-08-19T01:39:22;9.00;;;7.00;;
59014;SDS011;44799;53.382;14.666;2022-08-19T01:41:49;13.10;;;8.25;;
59014;SDS011;44799;53.382;14.666;2022-08-19T01:44:19;10.27;;;7.03;;
59014;SDS011;44799;53.382;14.666;2022-08-19T01:46:48;11.57;;;8.05;;
59014;SDS011;44799;53.382;14.666;2022-08-19T01:49:16;10.93;;;8.75;;
59014;SDS011;44799;53.382;14.666;2022-08-19T01:51:45;9.75;;;7.47;;
59014;SDS011;44799;53.382;14.666;2022-08-19T01:54:11;9.65;;;7.88;;
59014;SDS011;44799;53.382;14.666;2022-08-19T01:56:38;11.05;;;8.35;;
59014;SDS011;44799;53.382;14.666;2022-08-19T01:59:05;9.45;;;7.68;;
59014;SDS011;44799;53.382;14.666;2022-08-19T02:01:37;11.23;;;8.77;;
59014;SDS011;44799;53.382;14.666;2022-08-19T02:04:03;10.52;;;8.30;;
59014;SDS011;44799;53.382;14.666;2022-08-19T02:06:30;10.77;;;8.15;;
59014;SDS011;44799;53.382;14.666;2022-08-19T02:08:57;12.50;;;8.50;;
59014;SDS011;44799;53.382;14.666;2022-08-19T02:11:24;12.38;;;7.78;;
59014;SDS011;44799;53.382;14.666;2022-08-19T02:13:53;11.52;;;7.93;;
59014;SDS011;44799;53.382;14.666;2022-08-19T02:16:19;11.18;;;7.80;;
59014;SDS011;44799;53.382;14.666;2022-08-19T02:18:46;10.30;;;7.40;;
59014;SDS011;44799;53.382;14.666;2022-08-19T02:21:14;10.38;;;7.30;;
59014;SDS011;44799;53.382;14.666;2022-08-19T02:23:41;11.07;;;8.27;;
59014;SDS011;44799;53.382;14.666;2022-08-19T02:26:08;10.98;;;7.97;;
59014;SDS011;44799;53.382;14.666;2022-08-19T02:28:34;11.80;;;8.00;;
59014;SDS011;44799;53.382;14.666;2022-08-19T02:31:00;10.23;;;7.57;;
59014;SDS011;44799;53.382;14.666;2022-08-19T02:33:27;10.15;;;7.43;;
59014;SDS011;44799;53.382;14.666;2022-08-19T02:35:53;10.35;;;7.88;;
59014;SDS011;44799;53.382;14.666;2022-08-19T02:38:19;8.07;;;6.80;;
59014;SDS011;44799;53.382;14.666;2022-08-19T02:40:52;9.13;;;7.43;;
59014;SDS011;44799;53.382;14.666;2022-08-19T02:43:38;9.60;;;7.20;;
59014;SDS011;44799;53.382;14.666;2022-08-19T02:46:12;9.52;;;6.93;;
59014;SDS011;44799;53.382;14.666;2022-08-19T02:48:50;8.52;;;6.57;;
59014;SDS011;44799;53.382;14.666;2022-08-19T02:51:22;8.85;;;6.90;;
59014;SDS011;44799;53.382;14.666;2022-08-19T02:53:49;6.88;;;5.90;;
59014;SDS011;44799;53.382;14.666;2022-08-19T02:56:15;11.63;;;6.60;;
59014;SDS011;44799;53.382;14.666;2022-08-19T02:58:42;8.68;;;6.45;;
59014;SDS011;44799;53.382;14.666;2022-08-19T03:01:08;10.20;;;6.63;;
59014;SDS011;44799;53.382;14.666;2022-08-19T03:03:35;10.20;;;6.95;;
59014;SDS011;44799;53.382;14.666;2022-08-19T03:06:03;9.23;;;6.90;;
59014;SDS011;44799;53.382;14.666;2022-08-19T03:08:38;7.13;;;6.22;;
59014;SDS011;44799;53.382;14.666;2022-08-19T03:11:05;10.05;;;6.55;;
59014;SDS011;44799;53.382;14.666;2022-08-19T03:13:32;8.98;;;6.68;;
59014;SDS011;44799;53.382;14.666;2022-08-19T03:15:58;7.82;;;6.43;;
59014;SDS011;44799;53.382;14.666;2022-08-19T03:18:23;9.02;;;7.03;;
59014;SDS011;44799;53.382;14.666;2022-08-19T03:20:51;8.05;;;6.63;;
59014;SDS011;44799;53.382;14.666;2022-08-19T03:23:19;8.55;;;6.63;;
59014;SDS011;44799;53.382;14.666;2022-08-19T03:25:47;8.73;;;6.28;;
59014;SDS011;44799;53.382;14.666;2022-08-19T03:28:14;10.75;;;7.45;;
59014;SDS011;44799;53.382;14.666;2022-08-19T03:30:41;10.60;;;7.22;;
59014;SDS011;44799;53.382;14.666;2022-08-19T03:33:08;10.68;;;7.80;;
59014;SDS011;44799;53.382;14.666;2022-08-19T03:35:37;10.98;;;7.68;;
59014;SDS011;44799;53.382;14.666;2022-08-19T03:38:03;10.63;;;6.45;;
59014;SDS011;44799;53.382;14.666;2022-08-19T03:40:31;10.25;;;7.22;;
59014;SDS011;44799;53.382;14.666;2022-08-19T03:43:00;10.38;;;7.25;;
59014;SDS011;44799;53.382;14.666;2022-08-19T03:45:26;8.40;;;7.47;;
59014;SDS011;44799;53.382;14.666;2022-08-19T03:47:52;11.20;;;7.32;;
59014;SDS011;44799;53.382;14.666;2022-08-19T03:50:19;9.95;;;7.28;;
59014;SDS011;44799;53.382;14.666;2022-08-19T03:52:48;9.57;;;7.20;;
59014;SDS011;44799;53.382;14.666;2022-08-19T03:55:16;10.63;;;7.03;;
59014;SDS011;44799;53.382;14.666;2022-08-19T03:57:42;8.55;;;6.97;;
59014;SDS011;44799;53.382;14.666;2022-08-19T04:00:11;11.88;;;8.00;;
59014;SDS011;44799;53.382;14.666;2022-08-19T04:02:37;8.95;;;6.70;;
59014;SDS011;44799;53.382;14.666;2022-08-19T04:05:03;10.40;;;7.75;;
59014;SDS011;44799;53.382;14.666;2022-08-19T04:07:30;12.63;;;7.90;;
59014;SDS011;44799;53.382;14.666;2022-08-19T04:09:55;13.05;;;6.82;;
59014;SDS011;44799;53.382;14.666;2022-08-19T04:12:21;10.20;;;7.30;;
59014;SDS011;44799;53.382;14.666;2022-08-19T04:14:47;9.43;;;7.30;;
59014;SDS011;44799;53.382;14.666;2022-08-19T04:17:13;11.98;;;7.32;;
59014;SDS011;44799;53.382;14.666;2022-08-19T04:19:39;8.75;;;7.32;;
59014;SDS011;44799;53.382;14.666;2022-08-19T04:22:08;9.23;;;7.35;;
59014;SDS011;44799;53.382;14.666;2022-08-19T04:24:34;10.80;;;7.68;;
59014;SDS011;44799;53.382;14.666;2022-08-19T04:27:01;9.05;;;6.60;;
59014;SDS011;44799;53.382;14.666;2022-08-19T04:29:27;9.75;;;7.57;;
59014;SDS011;44799;53.382;14.666;2022-08-19T04:31:55;10.95;;;7.75;;
59014;SDS011;44799;53.382;14.666;2022-08-19T04:34:22;10.48;;;6.95;;
59014;SDS011;44799;53.382;14.666;2022-08-19T04:36:54;13.60;;;6.53;;
59014;SDS011;44799;53.382;14.666;2022-08-19T04:39:22;13.10;;;8.35;;
59014;SDS011;44799;53.382;14.666;2022-08-19T04:42:12;10.43;;;7.87;;
59014;SDS011;44799;53.382;14.666;2022-08-19T04:44:58;10.90;;;7.38;;
59014;SDS011;44799;53.382;14.666;2022-08-19T04:47:25;11.80;;;7.47;;
59014;SDS011;44799;53.382;14.666;2022-08-19T04:49:51;9.85;;;7.13;;
59014;SDS011;44799;53.382;14.666;2022-08-19T04:52:17;11.32;;;7.47;;
59014;SDS011;44799;53.382;14.666;2022-08-19T04:54:43;13.05;;;8.63;;
59014;SDS011;44799;53.382;14.666;2022-08-19T04:57:09;10.70;;;8.02;;
59014;SDS011;44799;53.382;14.666;2022-08-19T04:59:35;13.80;;;8.63;;
59014;SDS011;44799;53.382;14.666;2022-08-19T05:02:02;10.98;;;7.70;;
59014;SDS011;44799;53.382;14.666;2022-08-19T05:04:29;9.73;;;7.05;;
59014;SDS011;44799;53.382;14.666;2022-08-19T05:06:57;9.98;;;7.30;;
59014;SDS011;44799;53.382;14.666;2022-08-19T05:09:23;12.02;;;8.35;;
59014;SDS011;44799;53.382;14.666;2022-08-19T05:11:49;10.50;;;8.88;;
59014;SDS011;44799;53.382;14.666;2022-08-19T05:14:17;16.50;;;9.50;;
59014;SDS011;44799;53.382;14.666;2022-08-19T05:16:44;12.00;;;8.25;;
59014;SDS011;44799;53.382;14.666;2022-08-19T05:19:10;14.63;;;9.43;;
59014;SDS011;44799;53.382;14.666;2022-08-19T05:21:55;13.77;;;9.98;;
59014;SDS011;44799;53.382;14.666;2022-08-19T05:24:39;15.30;;;8.65;;
59014;SDS011;44799;53.382;14.666;2022-08-19T05:27:05;17.77;;;10.77;;
59014;SDS011;44799;53.382;14.666;2022-08-19T05:29:31;12.38;;;8.70;;
59014;SDS011;44799;53.382;14.666;2022-08-19T05:31:59;15.38;;;9.48;;
59014;SDS011;44799;53.382;14.666;2022-08-19T05:34:27;12.88;;;10.07;;
59014;SDS011;44799;53.382;14.666;2022-08-19T05:36:58;16.30;;;8.40;;
59014;SDS011;44799;53.382;14.666;2022-08-19T05:39:29;14.25;;;9.13;;
59014;SDS011;44799;53.382;14.666;2022-08-19T05:41:58;11.53;;;9.63;;
59014;SDS011;44799;53.382;14.666;2022-08-19T05:44:26;18.77;;;10.15;;
59014;SDS011;44799;53.382;14.666;2022-08-19T05:46:59;10.68;;;8.32;;
59014;SDS011;44799;53.382;14.666;2022-08-19T05:49:27;15.80;;;10.10;;
59014;SDS011;44799;53.382;14.666;2022-08-19T05:51:54;15.45;;;11.48;;
59014;SDS011;44799;53.382;14.666;2022-08-19T05:54:20;16.02;;;9.88;;
59014;SDS011;44799;53.382;14.666;2022-08-19T05:56:48;21.02;;;11.75;;
59014;SDS011;44799;53.382;14.666;2022-08-19T05:59:15;18.13;;;9.65;;
59014;SDS011;44799;53.382;14.666;2022-08-19T06:01:43;15.07;;;9.40;;
59014;SDS011;44799;53.382;14.666;2022-08-19T06:04:11;16.92;;;10.68;;
59014;SDS011;44799;53.382;14.666;2022-08-19T06:06:38;14.88;;;9.68;;
59014;SDS011;44799;53.382;14.666;2022-08-19T06:09:06;13.13;;;9.38;;
59014;SDS011;44799;53.382;14.666;2022-08-19T06:11:40;16.23;;;9.48;;
59014;SDS011;44799;53.382;14.666;2022-08-19T06:14:14;13.75;;;9.63;;
59014;SDS011;44799;53.382;14.666;2022-08-19T06:16:43;11.43;;;9.07;;
59014;SDS011;44799;53.382;14.666;2022-08-19T06:19:12;12.05;;;9.35;;
59014;SDS011;44799;53.382;14.666;2022-08-19T06:21:40;9.93;;;7.03;;
59014;SDS011;44799;53.382;14.666;2022-08-19T06:24:09;8.38;;;6.97;;
59014;SDS011;44799;53.382;14.666;2022-08-19T06:26:37;9.98;;;6.65;;
59014;SDS011;44799;53.382;14.666;2022-08-19T06:29:05;8.25;;;5.28;;
59014;SDS011;44799;53.382;14.666;2022-08-19T06:31:33;10.57;;;7.75;;
59014;SDS011;44799;53.382;14.666;2022-08-19T06:34:00;13.25;;;7.75;;
59014;SDS011;44799;53.382;14.666;2022-08-19T06:36:33;13.25;;;7.10;;
59014;SDS011;44799;53.382;14.666;2022-08-19T06:39:10;10.90;;;7.93;;
59014;SDS011;44799;53.382;14.666;2022-08-19T06:44:08;11.10;;;8.45;;
59014;SDS011;44799;53.382;14.666;2022-08-19T06:46:36;10.90;;;8.48;;
59014;SDS011;44799;53.382;14.666;2022-08-19T06:49:02;11.18;;;9.15;;
59014;SDS011;44799;53.382;14.666;2022-08-19T06:51:28;12.23;;;8.63;;
59014;SDS011;44799;53.382;14.666;2022-08-19T06:53:56;8.93;;;6.32;;
59014;SDS011;44799;53.382;14.666;2022-08-19T06:56:27;15.10;;;7.88;;
59014;SDS011;44799;53.382;14.666;2022-08-19T06:58:59;9.50;;;6.75;;
59014;SDS011;44799;53.382;14.666;2022-08-19T07:01:30;14.77;;;8.57;;
59014;SDS011;44799;53.382;14.666;2022-08-19T07:04:04;12.60;;;7.70;;
59014;SDS011;44799;53.382;14.666;2022-08-19T07:06:31;9.60;;;7.93;;
59014;SDS011;44799;53.382;14.666;2022-08-19T07:08:57;14.48;;;8.70;;
59014;SDS011;44799;53.382;14.666;2022-08-19T07:11:24;9.98;;;7.10;;
59014;SDS011;44799;53.382;14.666;2022-08-19T07:13:50;11.50;;;7.63;;
59014;SDS011;44799;53.382;14.666;2022-08-19T07:16:17;11.93;;;8.57;;
59014;SDS011;44799;53.382;14.666;2022-08-19T07:18:49;11.05;;;7.35;;
59014;SDS011;44799;53.382;14.666;2022-08-19T07:21:17;6.53;;;5.40;;
59014;SDS011;44799;53.382;14.666;2022-08-19T07:23:46;9.57;;;7.70;;
59014;SDS011;44799;53.382;14.666;2022-08-19T07:26:20;10.73;;;7.10;;
59014;SDS011;44799;53.382;14.666;2022-08-19T07:28:48;12.50;;;8.95;;
59014;SDS011;44799;53.382;14.666;2022-08-19T07:31:16;13.38;;;9.85;;
59014;SDS011;44799;53.382;14.666;2022-08-19T07:33:44;14.13;;;9.82;;
59014;SDS011;44799;53.382;14.666;2022-08-19T07:36:12;15.02;;;9.75;;
59014;SDS011;44799;53.382;14.666;2022-08-19T07:38:42;13.80;;;9.05;;
59014;SDS011;44799;53.382;14.666;2022-08-19T07:43:40;17.30;;;9.70;;
59014;SDS011;44799;53.382;14.666;2022-08-19T07:46:08;16.70;;;8.98;;
59014;SDS011;44799;53.382;14.666;2022-08-19T07:48:35;18.55;;;10.43;;
59014;SDS011;44799;53.382;14.666;2022-08-19T07:51:03;21.95;;;13.70;;
59014;SDS011;44799;53.382;14.666;2022-08-19T07:53:31;24.48;;;14.30;;
59014;SDS011;44799;53.382;14.666;2022-08-19T07:56:00;22.58;;;14.13;;
59014;SDS011;44799;53.382;14.666;2022-08-19T07:58:28;20.83;;;13.48;;
59014;SDS011;44799;53.382;14.666;2022-08-19T08:00:55;18.20;;;12.43;;
59014;SDS011;44799;53.382;14.666;2022-08-19T08:03:21;18.65;;;12.57;;
59014;SDS011;44799;53.382;14.666;2022-08-19T08:06:07;15.30;;;10.40;;
59014;SDS011;44799;53.382;14.666;2022-08-19T08:08:53;16.15;;;10.02;;
59014;SDS011;44799;53.382;14.666;2022-08-19T08:11:50;12.32;;;7.65;;
59014;SDS011;44799;53.382;14.666;2022-08-19T08:14:26;10.27;;;7.20;;
59014;SDS011;44799;53.382;14.666;2022-08-19T08:16:58;15.27;;;8.88;;
59014;SDS011;44799;53.382;14.666;2022-08-19T08:19:24;14.45;;;8.43;;
59014;SDS011;44799;53.382;14.666;2022-08-19T08:21:52;12.18;;;7.35;;
59014;SDS011;44799;53.382;14.666;2022-08-19T08:24:20;9.45;;;6.03;;
59014;SDS011;44799;53.382;14.666;2022-08-19T08:26:46;13.07;;;7.40;;
59014;SDS011;44799;53.382;14.666;2022-08-19T08:29:12;9.13;;;7.57;;
59014;SDS011;44799;53.382;14.666;2022-08-19T08:31:40;11.88;;;7.82;;
59014;SDS011;44799;53.382;14.666;2022-08-19T08:34:08;13.27;;;7.85;;
59014;SDS011;44799;53.382;14.666;2022-08-19T08:36:36;9.30;;;7.40;;
59014;SDS011;44799;53.382;14.666;2022-08-19T08:39:08;7.73;;;5.43;;
59014;SDS011;44799;53.382;14.666;2022-08-19T08:41:58;10.10;;;6.82;;
59014;SDS011;44799;53.382;14.666;2022-08-19T08:47:36;9.13;;;6.25;;
59014;SDS011;44799;53.382;14.666;2022-08-19T08:50:08;10.60;;;7.75;;
59014;SDS011;44799;53.382;14.666;2022-08-19T08:52:42;8.65;;;6.60;;
59014;SDS011;44799;53.382;14.666;2022-08-19T08:55:12;8.57;;;6.50;;
59014;SDS011;44799;53.382;14.666;2022-08-19T09:00:26;8.75;;;7.05;;
59014;SDS011;44799;53.382;14.666;2022-08-19T09:02:55;8.70;;;6.45;;
59014;SDS011;44799;53.382;14.666;2022-08-19T09:05:23;8.50;;;6.10;;
59014;SDS011;44799;53.382;14.666;2022-08-19T09:08:11;9.30;;;6.18;;
59014;SDS011;44799;53.382;14.666;2022-08-19T09:10:55;9.88;;;6.95;;
59014;SDS011;44799;53.382;14.666;2022-08-19T09:16:07;10.05;;;7.07;;
59014;SDS011;44799;53.382;14.666;2022-08-19T09:18:49;9.10;;;6.95;;
59014;SDS011;44799;53.382;14.666;2022-08-19T09:21:19;9.88;;;6.47;;
59014;SDS011;44799;53.382;14.666;2022-08-19T09:23:47;9.48;;;6.25;;
59014;SDS011;44799;53.382;14.666;2022-08-19T09:26:18;10.32;;;6.45;;
59014;SDS011;44799;53.382;14.666;2022-08-19T09:31:17;8.52;;;5.53;;
59014;SDS011;44799;53.382;14.666;2022-08-19T09:33:51;10.02;;;6.07;;
59014;SDS011;44799;53.382;14.666;2022-08-19T09:36:18;9.82;;;6.78;;
59014;SDS011;44799;53.382;14.666;2022-08-19T09:38:47;7.32;;;5.57;;
59014;SDS011;44799;53.382;14.666;2022-08-19T09:41:15;8.20;;;6.90;;
59014;SDS011;44799;53.382;14.666;2022-08-19T09:43:44;9.00;;;6.47;;
59014;SDS011;44799;53.382;14.666;2022-08-19T09:46:11;7.13;;;5.80;;
59014;SDS011;44799;53.382;14.666;2022-08-19T09:48:38;6.53;;;5.13;;
59014;SDS011;44799;53.382;14.666;2022-08-19T09:51:06;9.55;;;6.03;;
59014;SDS011;44799;53.382;14.666;2022-08-19T09:53:35;5.72;;;4.63;;
59014;SDS011;44799;53.382;14.666;2022-08-19T09:56:03;10.05;;;6.35;;
59014;SDS011;44799;53.382;14.666;2022-08-19T09:58:31;10.23;;;6.65;;
59014;SDS011;44799;53.382;14.666;2022-08-19T10:00:58;8.13;;;6.13;;
59014;SDS011;44799;53.382;14.666;2022-08-19T10:03:25;8.95;;;6.95;;
59014;SDS011;44799;53.382;14.666;2022-08-19T10:05:53;8.68;;;6.53;;
59014;SDS011;44799;53.382;14.666;2022-08-19T10:08:21;8.15;;;6.40;;
59014;SDS011;44799;53.382;14.666;2022-08-19T10:10:48;9.93;;;6.43;;
59014;SDS011;44799;53.382;14.666;2022-08-19T10:13:16;9.32;;;6.15;;
59014;SDS011;44799;53.382;14.666;2022-08-19T10:15:47;9.63;;;6.78;;
59014;SDS011;44799;53.382;14.666;2022-08-19T10:18:16;8.35;;;6.18;;
59014;SDS011;44799;53.382;14.666;2022-08-19T10:20:43;10.27;;;7.38;;
59014;SDS011;44799;53.382;14.666;2022-08-19T10:23:11;10.23;;;6.32;;
59014;SDS011;44799;53.382;14.666;2022-08-19T10:25:37;8.75;;;7.05;;
59014;SDS011;44799;53.382;14.666;2022-08-19T10:28:03;10.23;;;7.47;;
59014;SDS011;44799;53.382;14.666;2022-08-19T10:30:31;10.90;;;7.82;;
59014;SDS011;44799;53.382;14.666;2022-08-19T10:32:57;11.45;;;7.72;;
59014;SDS011;44799;53.382;14.666;2022-08-19T10:35:23;9.50;;;7.07;;
59014;SDS011;44799;53.382;14.666;2022-08-19T10:37:53;9.60;;;7.65;;
59014;SDS011;44799;53.382;14.666;2022-08-19T10:40:19;14.02;;;9.32;;
59014;SDS011;44799;53.382;14.666;2022-08-19T10:42:45;13.65;;;8.65;;
59014;SDS011;44799;53.382;14.666;2022-08-19T10:45:11;12.68;;;8.35;;
59014;SDS011;44799;53.382;14.666;2022-08-19T10:47:37;11.43;;;8.50;;
59014;SDS011;44799;53.382;14.666;2022-08-19T10:50:03;12.60;;;8.50;;
59014;SDS011;44799;53.382;14.666;2022-08-19T10:52:48;12.20;;;8.70;;
59014;SDS011;44799;53.382;14.666;2022-08-19T10:55:15;13.00;;;9.25;;
59014;SDS011;44799;53.382;14.666;2022-08-19T10:58:09;15.73;;;8.88;;
59014;SDS011;44799;53.382;14.666;2022-08-19T11:00:39;17.08;;;9.73;;
59014;SDS011;44799;53.382;14.666;2022-08-19T11:03:06;14.43;;;10.15;;
59014;SDS011;44799;53.382;14.666;2022-08-19T11:05:32;12.57;;;9.35;;
59014;SDS011;44799;53.382;14.666;2022-08-19T11:07:58;14.00;;;9.40;;
59014;SDS011;44799;53.382;14.666;2022-08-19T11:10:24;12.38;;;9.35;;
59014;SDS011;44799;53.382;14.666;2022-08-19T11:12:50;12.00;;;9.00;;
59014;SDS011;44799;53.382;14.666;2022-08-19T11:15:19;17.98;;;9.70;;
59014;SDS011;44799;53.382;14.666;2022-08-19T11:17:45;13.10;;;9.93;;
59014;SDS011;44799;53.382;14.666;2022-08-19T11:20:12;13.07;;;9.27;;
59014;SDS011;44799;53.382;14.666;2022-08-19T11:22:39;13.18;;;9.20;;
59014;SDS011;44799;53.382;14.666;2022-08-19T11:25:06;16.80;;;10.73;;
59014;SDS011;44799;53.382;14.666;2022-08-19T11:27:33;14.13;;;10.48;;
59014;SDS011;44799;53.382;14.666;2022-08-19T11:30:02;13.75;;;9.45;;
59014;SDS011;44799;53.382;14.666;2022-08-19T11:32:28;12.07;;;8.98;;
59014;SDS011;44799;53.382;14.666;2022-08-19T11:34:54;11.05;;;7.97;;
59014;SDS011;44799;53.382;14.666;2022-08-19T11:37:20;13.25;;;9.35;;
59014;SDS011;44799;53.382;14.666;2022-08-19T11:39:46;13.65;;;9.32;;
59014;SDS011;44799;53.382;14.666;2022-08-19T11:42:11;12.63;;;8.98;;
59014;SDS011;44799;53.382;14.666;2022-08-19T11:44:56;10.27;;;8.73;;
59014;SDS011;44799;53.382;14.666;2022-08-19T11:47:22;12.15;;;8.20;;
59014;SDS011;44799;53.382;14.666;2022-08-19T11:49:49;14.23;;;7.95;;
59014;SDS011;44799;53.382;14.666;2022-08-19T11:52:14;10.25;;;8.68;;
59014;SDS011;44799;53.382;14.666;2022-08-19T11:54:42;13.82;;;8.77;;
59014;SDS011;44799;53.382;14.666;2022-08-19T11:57:07;11.77;;;8.77;;
59014;SDS011;44799;53.382;14.666;2022-08-19T11:59:33;14.18;;;8.40;;
59014;SDS011;44799;53.382;14.666;2022-08-19T12:01:59;11.02;;;8.60;;
59014;SDS011;44799;53.382;14.666;2022-08-19T12:04:24;13.10;;;9.00;;
59014;SDS011;44799;53.382;14.666;2022-08-19T12:06:50;11.73;;;9.43;;
59014;SDS011;44799;53.382;14.666;2022-08-19T12:09:16;10.15;;;8.32;;
59014;SDS011;44799;53.382;14.666;2022-08-19T12:11:42;10.90;;;8.60;;
59014;SDS011;44799;53.382;14.666;2022-08-19T12:14:09;10.40;;;9.05;;
59014;SDS011;44799;53.382;14.666;2022-08-19T12:16:36;11.25;;;8.95;;
59014;SDS011;44799;53.382;14.666;2022-08-19T12:19:03;11.30;;;9.18;;
59014;SDS011;44799;53.382;14.666;2022-08-19T12:21:31;10.00;;;7.80;;
59014;SDS011;44799;53.382;14.666;2022-08-19T12:23:59;11.75;;;8.80;;
59014;SDS011;44799;53.382;14.666;2022-08-19T12:26:26;10.20;;;7.75;;
59014;SDS011;44799;53.382;14.666;2022-08-19T12:28:54;10.57;;;8.07;;
59014;SDS011;44799;53.382;14.666;2022-08-19T12:31:20;10.20;;;8.02;;
59014;SDS011;44799;53.382;14.666;2022-08-19T12:33:46;11.20;;;8.50;;
59014;SDS011;44799;53.382;14.666;2022-08-19T12:36:12;11.05;;;8.50;;
59014;SDS011;44799;53.382;14.666;2022-08-19T12:38:41;9.35;;;7.72;;
59014;SDS011;44799;53.382;14.666;2022-08-19T12:41:10;8.68;;;7.10;;
59014;SDS011;44799;53.382;14.666;2022-08-19T12:43:37;10.25;;;8.10;;
59014;SDS011;44799;53.382;14.666;2022-08-19T12:46:03;11.82;;;8.10;;
59014;SDS011;44799;53.382;14.666;2022-08-19T12:48:31;10.20;;;7.78;;
59014;SDS011;44799;53.382;14.666;2022-08-19T12:50:57;7.82;;;5.45;;
59014;SDS011;44799;53.382;14.666;2022-08-19T12:53:23;10.07;;;8.50;;
59014;SDS011;44799;53.382;14.666;2022-08-19T12:55:56;9.40;;;8.43;;
59014;SDS011;44799;53.382;14.666;2022-08-19T12:58:24;12.23;;;9.10;;
59014;SDS011;44799;53.382;14.666;2022-08-19T13:00:51;12.77;;;8.90;;
59014;SDS011;44799;53.382;14.666;2022-08-19T13:03:17;9.85;;;8.23;;
59014;SDS011;44799;53.382;14.666;2022-08-19T13:05:42;10.70;;;8.30;;
59014;SDS011;44799;53.382;14.666;2022-08-19T13:08:08;10.80;;;8.40;;
59014;SDS011;44799;53.382;14.666;2022-08-19T13:10:35;9.45;;;7.55;;
59014;SDS011;44799;53.382;14.666;2022-08-19T13:13:03;8.50;;;7.15;;
59014;SDS011;44799;53.382;14.666;2022-08-19T13:15:32;9.77;;;7.40;;
59014;SDS011;44799;53.382;14.666;2022-08-19T13:18:00;10.00;;;7.68;;
59014;SDS011;44799;53.382;14.666;2022-08-19T13:20:26;8.73;;;7.30;;
59014;SDS011;44799;53.382;14.666;2022-08-19T13:22:52;9.68;;;7.18;;
59014;SDS011;44799;53.382;14.666;2022-08-19T13:25:19;11.50;;;8.45;;
59014;SDS011;44799;53.382;14.666;2022-08-19T13:27:46;10.82;;;8.05;;
59014;SDS011;44799;53.382;14.666;2022-08-19T13:30:13;10.32;;;8.05;;
59014;SDS011;44799;53.382;14.666;2022-08-19T13:32:59;13.20;;;9.38;;
59014;SDS011;44799;53.382;14.666;2022-08-19T13:35:38;11.93;;;8.70;;
59014;SDS011;44799;53.382;14.666;2022-08-19T13:38:05;11.55;;;9.30;;
59014;SDS011;44799;53.382;14.666;2022-08-19T13:40:31;12.00;;;8.63;;
59014;SDS011;44799;53.382;14.666;2022-08-19T13:43:01;14.07;;;9.57;;
59014;SDS011;44799;53.382;14.666;2022-08-19T13:45:29;13.00;;;9.60;;
59014;SDS011;44799;53.382;14.666;2022-08-19T13:47:58;9.07;;;7.15;;
59014;SDS011;44799;53.382;14.666;2022-08-19T13:50:28;9.15;;;7.50;;
59014;SDS011;44799;53.382;14.666;2022-08-19T13:52:56;9.48;;;6.97;;
59014;SDS011;44799;53.382;14.666;2022-08-19T13:55:23;7.97;;;7.07;;
59014;SDS011;44799;53.382;14.666;2022-08-19T13:57:50;11.38;;;7.53;;
59014;SDS011;44799;53.382;14.666;2022-08-19T14:00:18;14.15;;;8.02;;
59014;SDS011;44799;53.382;14.666;2022-08-19T14:02:45;8.75;;;7.35;;
59014;SDS011;44799;53.382;14.666;2022-08-19T14:05:13;7.22;;;6.18;;
59014;SDS011;44799;53.382;14.666;2022-08-19T14:07:40;10.88;;;8.23;;
59014;SDS011;44799;53.382;14.666;2022-08-19T14:10:08;9.95;;;8.07;;
59014;SDS011;44799;53.382;14.666;2022-08-19T14:12:35;9.85;;;7.55;;
59014;SDS011;44799;53.382;14.666;2022-08-19T14:15:02;8.70;;;6.78;;
59014;SDS011;44799;53.382;14.666;2022-08-19T14:17:29;8.73;;;6.57;;
59014;SDS011;44799;53.382;14.666;2022-08-19T14:19:59;9.20;;;7.22;;
59014;SDS011;44799;53.382;14.666;2022-08-19T14:22:31;5.45;;;4.93;;
59014;SDS011;44799;53.382;14.666;2022-08-19T14:24:57;7.90;;;6.47;;
59014;SDS011;44799;53.382;14.666;2022-08-19T14:27:23;6.97;;;5.63;;
59014;SDS011;44799;53.382;14.666;2022-08-19T14:29:50;6.82;;;6.15;;
59014;SDS011;44799;53.382;14.666;2022-08-19T14:32:16;7.15;;;6.35;;
59014;SDS011;44799;53.382;14.666;2022-08-19T14:34:42;10.85;;;7.55;;
59014;SDS011;44799;53.382;14.666;2022-08-19T14:37:11;8.30;;;7.40;;
59014;SDS011;44799;53.382;14.666;2022-08-19T14:39:39;9.77;;;7.93;;
59014;SDS011;44799;53.382;14.666;2022-08-19T14:42:10;7.88;;;6.60;;
59014;SDS011;44799;53.382;14.666;2022-08-19T14:44:37;10.45;;;6.85;;
59014;SDS011;44799;53.382;14.666;2022-08-19T14:47:03;8.98;;;8.07;;
59014;SDS011;44799;53.382;14.666;2022-08-19T14:49:31;8.55;;;7.07;;
59014;SDS011;44799;53.382;14.666;2022-08-19T14:51:57;9.75;;;6.57;;